Latest Weather Observations for Cairns

IDQ60801

Issued at 12:32 pm EST Sunday 5 April 2020 (issued every 10 minutes, with the page automatically refreshed every 10 minutes)

About weather observations | Map of weather stations | Latest weather observations for QLD | Other Formats
Station Details ID: 031011 Name: CAIRNS AERO Lat: -16.87 Lon: 145.75 Height: 2.22 m
Data from the previous 72 hours. | See also: Recent months at Cairns
Date/Time
EST
Temp
°C
App
Temp
°C
Dew
Point
°C
Rel
Hum
%
Delta-T
°C
Wind Press
QNH
hPa
Press
MSL
hPa
Rain since
9am
mm
Dir  Spd
km/h
Gust
km/h
Spd
kts
Gust
kts
05/12:00pm 29.8 33.2 24.7 74 3.6 ENE 15 20 8 11 1010.5 1010.5 0.0
05/11:30am 29.8 32.8 24.0 71 4.0 ENE 15 20 8 11 1011.0 1011.0 0.0
05/11:00am 30.2 33.5 23.9 69 4.4 NE 13 19 7 10 1011.4 1011.4 0.0
05/10:30am 30.5 34.5 23.7 67 4.7 ENE 9 15 5 8 1011.7 1011.7 0.0
05/10:00am 29.9 34.5 23.8 70 4.2 ESE 6 15 3 8 1012.0 1012.0 0.0
05/09:30am 29.7 34.2 23.9 71 4.0 SSE 7 13 4 7 1012.0 1012.0 0.0
05/09:00am 28.7 32.6 22.9 71 4.0 SSE 7 13 4 7 1011.9 1011.9 0.0
05/08:30am 27.8 31.5 23.2 76 3.1 S 9 17 5 9 1011.6 1011.6 0.0
05/08:00am 27.2 31.1 22.6 76 3.1 SE 6 13 3 7 1011.4 1011.4 0.0
05/07:30am 26.2 30.8 22.5 80 2.5 WSW 2 7 1 4 1011.2 1011.2 0.0
05/07:00am 24.8 29.5 22.7 88 1.4 WNW 2 4 1 2 1011.0 1011.0 0.0
05/06:30am 23.9 28.7 22.2 90 1.1 CALM 0 0 0 0 1010.7 1010.7 0.0
05/06:00am 24.0 28.0 22.1 89 1.3 S 4 4 2 2 1010.4 1010.4 0.0
05/05:30am 24.4 28.1 22.3 88 1.4 W 6 7 3 4 1010.0 1010.0 0.0
05/05:00am 23.8 28.2 22.1 90 1.1 WSW 2 4 1 2 1009.5 1009.5 0.0
05/04:30am 24.1 28.6 22.2 89 1.3 W 2 4 1 2 1009.3 1009.3 0.0
05/04:00am 24.4 28.9 22.3 88 1.4 SW 2 6 1 3 1009.2 1009.2 0.0
05/03:30am 24.2 29.0 22.1 88 1.4 CALM 0 0 0 0 1009.3 1009.3 0.0
05/03:00am 24.8 29.7 22.3 86 1.7 CALM 0 0 0 0 1009.5 1009.5 0.0
05/02:30am 24.5 28.7 21.8 85 1.8 W 2 6 1 3 1009.7 1009.7 0.0
05/02:00am 24.7 28.7 22.0 85 1.8 W 4 6 2 3 1009.9 1009.9 0.0
05/01:30am 25.2 28.6 21.7 81 2.3 W 6 11 3 6 1010.4 1010.4 0.0
05/01:00am 25.2 28.7 21.9 82 2.2 W 6 7 3 4 1010.4 1010.4 0.0
05/12:30am 25.6 29.1 21.9 80 2.5 W 6 11 3 6 1010.6 1010.6 0.0
05/12:00am 25.4 28.9 21.9 81 2.3 W 6 7 3 4 1010.7 1010.7 0.0
 
Date/Time
EST
Temp
°C
App
Temp
°C
Dew
Point
°C
Rel
Hum
%
Delta-T
°C
Wind Press
QNH
hPa
Press
MSL
hPa
Rain since
9am
mm
Dir  Spd
km/h
Gust
km/h
Spd
kts
Gust
kts
04/11:30pm 25.4 29.0 22.1 82 2.2 W 6 9 3 5 1011.0 1011.0 0.0
04/11:00pm 25.6 29.7 22.3 82 2.2 W 4 7 2 4 1011.4 1011.4 0.0
04/10:30pm 25.7 29.9 22.4 82 2.2 WNW 4 6 2 3 1012.0 1012.0 0.0
04/10:00pm 26.0 29.7 22.3 80 2.5 WSW 6 7 3 4 1012.0 1012.0 0.0
04/09:30pm 26.0 30.2 22.5 81 2.4 W 4 6 2 3 1011.6 1011.6 0.0
04/09:00pm 26.3 30.5 22.4 79 2.6 W 4 6 2 3 1011.3 1011.3 0.0
04/08:30pm 26.7 30.9 22.5 78 2.8 WSW 4 6 2 3 1011.0 1011.0 0.0
04/08:00pm 26.9 31.6 22.7 78 2.8 NNE 2 6 1 3 1010.4 1010.4 0.0
04/07:30pm 26.9 31.1 22.5 77 3.0 N 4 6 2 3 1010.1 1010.1 0.0
04/07:00pm 27.0 31.2 22.4 76 3.1 NNE 4 6 2 3 1009.7 1009.7 0.0
04/06:30pm 27.1 31.0 22.5 76 3.1 NNE 6 9 3 5 1009.2 1009.2 0.0
04/06:00pm 27.2 31.1 22.6 76 3.1 NNE 6 7 3 4 1008.8 1008.8 0.0
04/05:30pm 27.5 31.0 22.2 73 3.6 NNE 7 11 4 6 1008.4 1008.4 0.0
04/05:00pm 28.0 31.7 22.2 70 3.9 NNE 6 11 3 6 1008.2 1008.2 0.0
04/04:30pm 28.4 32.1 22.6 71 3.9 NE 7 13 4 7 1007.8 1007.8 0.0
04/04:00pm 28.4 31.4 21.9 68 4.4 NNE 9 13 5 7 1007.8 1007.8 0.0
04/03:30pm 28.5 31.8 22.5 70 4.1 NNE 9 15 5 8 1007.7 1007.7 0.0
04/03:00pm 28.3 30.6 21.3 65 4.7 NE 11 17 6 9 1007.7 1007.7 0.0
04/02:30pm 28.7 30.7 21.5 65 4.8 NNE 13 19 7 10 1007.9 1007.9 0.0
04/02:00pm 29.0 30.8 21.2 62 5.2 NNE 13 19 7 10 1008.2 1008.2 0.0
04/01:30pm 29.0 29.7 19.6 57 6.1 NNE 15 19 8 10 1008.3 1008.3 0.0
04/01:00pm 29.2 31.3 21.7 64 5.0 NNE 13 20 7 11 1008.6 1008.6 0.0
04/12:30pm 29.2 30.7 19.8 57 6.2 NNE 11 17 6 9 1009.0 1009.0 0.0
04/12:00pm 29.1 30.6 20.5 59 5.7 NE 13 17 7 9 1009.5 1009.5 0.0
04/11:30am 29.4 31.2 20.3 58 6.0 ENE 11 17 6 9 1010.1 1010.1 0.0
04/11:00am 29.0 30.8 20.4 59 5.7 ENE 11 17 6 9 1010.6 1010.6 0.0
04/10:30am 30.0 33.6 20.5 56 6.3 NNW 2 6 1 3 1011.0 1011.0 0.0
04/10:00am 29.2 33.2 21.4 63 5.2 NW 2 6 1 3 1011.5 1011.5 0.0
04/09:30am 28.4 32.2 21.7 67 4.5 W 4 7 2 4 1011.4 1011.4 0.0
04/09:00am 27.1 31.5 22.1 74 3.4 N 2 4 1 2 1011.5 1011.5 0.0
04/08:30am 25.8 30.1 21.9 79 2.6 ENE 2 4 1 2 1011.7 1011.7 0.0
04/08:00am 24.3 28.4 21.6 85 1.8 N 2 4 1 2 1011.5 1011.5 0.0
04/07:30am 23.9 28.5 21.8 88 1.4 CALM 0 0 0 0 1011.2 1011.2 0.0
04/07:00am 22.1 26.1 21.4 96 0.5 WSW 2 4 1 2 1011.0 1011.0 0.0
04/06:30am 21.5 25.6 20.8 96 0.5 CALM 0 0 0 0 1010.6 1010.6 0.0
04/06:00am 21.6 25.4 20.9 96 0.5 SE 2 4 1 2 1010.2 1010.2 0.0
04/05:30am 21.7 25.9 21.0 96 0.5 CALM 0 0 0 0 1009.9 1009.9 0.0
04/05:00am 21.8 26.1 21.1 96 0.5 CALM 0 0 0 0 1009.8 1009.8 0.0
04/04:30am 21.8 26.0 21.0 95 0.5 CALM 0 0 0 0 1009.5 1009.5 0.0
04/04:00am 21.9 26.2 21.1 95 0.5 CALM 0 0 0 0 1009.4 1009.4 0.0
04/03:30am 22.1 26.5 21.3 95 0.5 CALM 0 2 0 1 1009.4 1009.4 0.0
04/03:00am 22.0 26.3 21.2 95 0.5 CALM 0 0 0 0 1009.3 1009.3 0.0
04/02:30am 22.1 26.4 21.1 94 0.7 CALM 0 0 0 0 1009.3 1009.3 0.0
04/02:00am 22.2 26.5 21.2 94 0.7 CALM 0 0 0 0 1009.4 1009.4 0.0
04/01:30am 22.4 26.7 21.2 93 0.8 CALM 0 0 0 0 1009.5 1009.5 0.0
04/01:00am 22.6 26.9 21.2 92 0.9 CALM 0 2 0 1 1009.7 1009.7 0.0
04/12:30am 22.9 26.6 21.5 92 0.9 W 4 4 2 2 1010.2 1010.2 0.0
04/12:00am 23.1 26.8 21.4 90 1.1 W 4 6 2 3 1010.3 1010.3 0.0
 
Date/Time
EST
Temp
°C
App
Temp
°C
Dew
Point
°C
Rel
Hum
%
Delta-T
°C
Wind Press
QNH
hPa
Press
MSL
hPa
Rain since
9am
mm
Dir  Spd
km/h
Gust
km/h
Spd
kts
Gust
kts
03/11:30pm 23.2 27.6 21.3 89 1.2 CALM 0 4 0 2 1010.4 1010.4 0.0
03/11:00pm 23.8 27.5 21.5 87 1.5 W 4 6 2 3 1010.6 1010.6 0.0
03/10:30pm 24.2 28.6 21.3 84 1.9 CALM 0 0 0 0 1010.7 1010.7 0.0
03/10:00pm 24.6 28.6 21.3 82 2.2 SSE 2 7 1 4 1010.6 1010.6 0.0
03/09:30pm 25.2 28.4 21.3 79 2.6 S 6 11 3 6 1010.5 1010.5 0.0
03/09:00pm 25.5 28.8 21.4 78 2.7 S 6 11 3 6 1010.3 1010.3 0.0
03/08:30pm 25.7 28.5 21.6 78 2.7 S 9 15 5 8 1010.1 1010.1 0.0
03/08:00pm 25.7 28.7 22.0 80 2.5 SSE 9 15 5 8 1010.0 1010.0 0.0
03/07:30pm 25.7 28.3 22.0 80 2.5 SSE 11 17 6 9 1009.9 1009.9 0.0
03/07:00pm 26.3 29.6 21.9 77 2.9 S 7 13 4 7 1009.7 1009.7 0.0
03/06:30pm 26.4 30.1 21.4 74 3.3 S 4 7 2 4 1009.4 1009.4 0.0
03/06:00pm 27.4 30.8 21.7 71 3.8 S 6 7 3 4 1009.1 1009.1 0.0
03/05:30pm 28.1 31.9 21.6 68 4.3 S 4 6 2 3 1008.8 1008.8 0.0
03/05:00pm 28.3 30.7 21.6 67 4.5 E 11 15 6 8 1008.7 1008.7 0.0
03/04:30pm 29.3 31.6 22.8 68 4.4 ENE 15 20 8 11 1008.5 1008.5 0.0
03/04:00pm 28.8 29.9 21.3 64 5.0 E 17 24 9 13 1008.2 1008.2 0.0
03/03:30pm 29.5 30.6 21.2 61 5.5 NE 17 22 9 12 1008.1 1008.1 0.0
03/03:00pm 29.4 31.2 21.9 64 5.1 NE 15 22 8 12 1008.3 1008.3 0.0
03/02:30pm 29.1 30.8 22.3 66 4.6 NE 17 20 9 11 1008.4 1008.4 0.0
03/02:00pm 29.3 31.2 22.0 64 4.9 NE 15 20 8 11 1008.7 1008.7 0.0
03/01:30pm 29.6 31.6 21.5 61 5.4 NE 13 20 7 11 1009.1 1009.1 0.0
03/01:00pm 29.3 30.4 21.3 62 5.4 NE 17 20 9 11 1009.5 1009.5 0.0
03/12:30pm 29.4 31.0 21.4 62 5.4 NE 15 22 8 12 1009.9 1009.9 0.0
03/12:00pm 29.5 30.7 20.6 58 5.9 NE 15 20 8 11 1010.4 1010.4 0.0
03/11:30am 29.9 32.8 21.0 59 5.9 E 7 17 4 9 1010.8 1010.8 0.0
03/11:00am 29.8 32.2 20.9 59 5.9 E 9 17 5 9 1011.3 1011.3 0.0
03/10:30am 29.1 32.1 21.3 62 5.2 SSE 7 15 4 8 1011.7 1011.7 0.0
03/10:00am 28.0 30.2 20.3 63 5.1 SSE 9 17 5 9 1011.8 1011.8 0.0
03/09:30am 27.6 29.2 19.9 63 5.0 SSE 11 17 6 9 1011.9 1011.9 0.0
03/09:00am 26.5 28.2 20.1 68 4.2 SE 11 15 6 8 1012.0 1012.0 0.2
03/08:30am 25.3 27.3 19.9 72 3.5 SE 9 15 5 8 1011.8 1011.8 0.2
03/08:00am 24.7 27.0 19.8 74 3.2 SE 7 13 4 7 1011.7 1011.7 0.2
03/07:30am 23.6 24.6 19.5 78 2.6 SSE 13 17 7 9 1011.6 1011.6 0.2
03/07:00am 21.7 24.8 20.2 91 1.0 WNW 4 6 2 3 1011.1 1011.1 0.2
03/06:30am 20.9 24.4 19.6 92 0.8 CALM 0 2 0 1 1010.7 1010.7 0.2
03/06:00am 21.8 24.9 19.5 87 1.5 SW 2 4 1 2 1010.4 1010.4 0.2
03/05:30am 21.8 22.4 19.5 87 1.5 SE 15 20 8 11 1010.1 1010.1 0.2
03/05:00am 21.5 23.0 19.8 90 1.1 SSE 11 17 6 9 1009.9 1009.9 0.2
03/04:30am 21.7 23.0 20.2 91 1.0 SE 13 17 7 9 1009.7 1009.7 0.2
03/04:00am 21.8 23.1 20.1 90 1.1 SSE 13 17 7 9 1009.6 1009.6 0.2
03/03:30am 22.0 23.4 20.3 90 1.1 SE 13 19 7 10 1009.6 1009.6 0.2
03/03:00am 22.1 23.5 20.4 90 1.1 SE 13 17 7 9 1009.8 1009.8 0.2
03/02:30am 22.6 23.7 20.5 88 1.4 ESE 15 19 8 10 1009.9 1009.9 0.2
03/02:00am 23.1 24.6 20.6 86 1.6 SE 13 15 7 8 1009.9 1009.9 0.2
03/01:30am 23.1 24.7 20.8 87 1.5 ESE 13 17 7 9 1010.2 1010.2 0.2
03/01:00am 24.2 26.4 20.5 80 2.4 SSE 9 15 5 8 1010.4 1010.4 0.2
03/12:30am 24.4 26.4 20.7 80 2.4 S 11 19 6 10 1010.9 1010.9 0.2
03/12:00am 24.8 26.1 20.9 79 2.6 S 15 22 8 12 1011.1 1011.1 0.2
 
Date/Time
EST
Temp
°C
App
Temp
°C
Dew
Point
°C
Rel
Hum
%
Delta-T
°C
Wind Press
QNH
hPa
Press
MSL
hPa
Rain since
9am
mm
Dir  Spd
km/h
Gust
km/h
Spd
kts
Gust
kts
02/11:30pm 24.8 27.2 20.9 79 2.6 S 9 19 5 10 1011.3 1011.3 0.2
02/11:00pm 24.8 27.6 20.9 79 2.6 S 7 15 4 8 1011.7 1011.7 0.2
02/10:30pm 24.5 27.2 21.4 83 2.0 SSE 9 17 5 9 1011.9 1011.9 0.2
02/10:00pm 24.8 27.7 21.7 83 2.1 SSE 9 15 5 8 1012.1 1012.1 0.2
02/09:30pm 25.3 28.2 21.8 81 2.3 S 9 19 5 10 1012.1 1012.1 0.2
02/09:00pm 25.5 29.4 21.8 80 2.5 SSW 4 7 2 4 1011.8 1011.8 0.2
02/08:30pm 25.7 29.1 22.0 80 2.5 S 7 17 4 9 1011.5 1011.5 0.2
02/08:00pm 26.1 27.6 22.0 78 2.7 SSE 17 20 9 11 1011.1 1011.1 0.2
02/07:30pm 26.1 28.4 22.0 78 2.7 SSE 13 24 7 13 1010.8 1010.8 0.2
02/07:00pm 26.0 29.1 22.1 79 2.6 SSE 9 17 5 9 1010.5 1010.5 0.2
02/06:30pm 26.0 28.7 21.4 76 3.1 S 9 15 5 8 1010.3 1010.3 0.2
02/06:00pm 27.0 28.1 21.3 71 3.8 SE 17 24 9 13 1010.3 1010.3 0.2
02/05:30pm 27.5 27.7 21.3 69 4.1 SE 22 32 12 17 1010.0 1010.0 0.2
02/05:00pm 28.2 28.9 21.2 65 4.7 ESE 19 24 10 13 1009.7 1009.7 0.2
02/04:30pm 28.7 28.5 22.0 67 4.5 SE 26 33 14 18 1009.4 1009.4 0.2
02/04:00pm 28.4 27.9 21.4 66 4.7 ESE 26 35 14 19 1009.2 1009.2 0.2
02/03:30pm 29.6 29.2 20.2 57 6.2 SE 22 30 12 16 1009.2 1009.2 0.2
02/03:00pm 29.4 29.5 20.3 58 6.0 ESE 20 28 11 15 1009.3 1009.3 0.2
02/02:30pm 30.4 30.0 18.8 50 7.5 ESE 19 26 10 14 1009.4 1009.4 0.2
02/02:00pm 30.3 30.1 18.4 49 7.7 ESE 17 26 9 14 1010.1 1010.1 0.2
02/01:30pm 30.7 31.3 20.3 53 6.9 ESE 17 26 9 14 1010.5 1010.5 0.2
02/01:00pm 29.9 30.1 20.2 56 6.4 SE 19 24 10 13 1010.8 1010.8 0.2

Other formats

Comma delimited format used in spreadsheet applications
http://www.bom.gov.au/fwo/IDQ60801/IDQ60801.94287.axf

JavaScript Object Notation format (JSON) in row-major order
http://www.bom.gov.au/fwo/IDQ60801/IDQ60801.94287.json

Data quality

Most of these data are generated automatically and are frequently updated. Quality checks on data are not normally performed. It is possible for incorrect values to appear. Refer to information at About Latest Weather Observations and please check the disclaimer before using these data.